sensor_id;sensor_type;location;lat;lon;timestamp;P1;durP1;ratioP1;P2;durP2;ratioP2
24644;SDS011;12780;45.502;9.146;2023-03-18T00:01:23;34.58;;;17.98;;
24644;SDS011;12780;45.502;9.146;2023-03-18T00:03:49;40.08;;;18.67;;
24644;SDS011;12780;45.502;9.146;2023-03-18T00:06:16;39.05;;;19.42;;
24644;SDS011;12780;45.502;9.146;2023-03-18T00:08:44;38.80;;;19.27;;
24644;SDS011;12780;45.502;9.146;2023-03-18T00:11:11;45.15;;;20.33;;
24644;SDS011;12780;45.502;9.146;2023-03-18T00:13:39;39.55;;;18.88;;
24644;SDS011;12780;45.502;9.146;2023-03-18T00:16:06;40.80;;;19.88;;
24644;SDS011;12780;45.502;9.146;2023-03-18T00:18:35;40.70;;;19.42;;
24644;SDS011;12780;45.502;9.146;2023-03-18T00:21:00;40.85;;;20.77;;
24644;SDS011;12780;45.502;9.146;2023-03-18T00:23:27;38.38;;;20.27;;
24644;SDS011;12780;45.502;9.146;2023-03-18T00:25:54;47.15;;;20.50;;
24644;SDS011;12780;45.502;9.146;2023-03-18T00:28:24;41.25;;;19.40;;
24644;SDS011;12780;45.502;9.146;2023-03-18T00:30:50;50.42;;;19.90;;
24644;SDS011;12780;45.502;9.146;2023-03-18T00:33:17;39.85;;;19.92;;
24644;SDS011;12780;45.502;9.146;2023-03-18T00:35:44;48.38;;;21.20;;
24644;SDS011;12780;45.502;9.146;2023-03-18T00:38:10;40.03;;;20.52;;
24644;SDS011;12780;45.502;9.146;2023-03-18T00:40:44;45.17;;;20.50;;
24644;SDS011;12780;45.502;9.146;2023-03-18T00:43:36;40.33;;;20.38;;
24644;SDS011;12780;45.502;9.146;2023-03-18T00:46:17;43.30;;;19.70;;
24644;SDS011;12780;45.502;9.146;2023-03-18T00:48:44;46.40;;;20.67;;
24644;SDS011;12780;45.502;9.146;2023-03-18T00:51:11;49.42;;;21.00;;
24644;SDS011;12780;45.502;9.146;2023-03-18T00:53:41;43.00;;;20.17;;
24644;SDS011;12780;45.502;9.146;2023-03-18T00:56:09;44.53;;;20.67;;
24644;SDS011;12780;45.502;9.146;2023-03-18T00:58:35;44.35;;;20.75;;
24644;SDS011;12780;45.502;9.146;2023-03-18T01:01:04;43.53;;;21.40;;
24644;SDS011;12780;45.502;9.146;2023-03-18T01:03:30;43.55;;;22.17;;
24644;SDS011;12780;45.502;9.146;2023-03-18T01:05:56;43.75;;;21.23;;
24644;SDS011;12780;45.502;9.146;2023-03-18T01:08:21;41.00;;;19.20;;
24644;SDS011;12780;45.502;9.146;2023-03-18T01:10:48;46.00;;;20.40;;
24644;SDS011;12780;45.502;9.146;2023-03-18T01:13:15;41.63;;;20.77;;
24644;SDS011;12780;45.502;9.146;2023-03-18T01:15:41;50.75;;;21.88;;
24644;SDS011;12780;45.502;9.146;2023-03-18T01:18:07;53.25;;;22.13;;
24644;SDS011;12780;45.502;9.146;2023-03-18T01:20:35;54.60;;;25.17;;
24644;SDS011;12780;45.502;9.146;2023-03-18T01:23:03;53.67;;;24.98;;
24644;SDS011;12780;45.502;9.146;2023-03-18T01:25:29;44.40;;;21.42;;
24644;SDS011;12780;45.502;9.146;2023-03-18T01:27:56;42.47;;;21.20;;
24644;SDS011;12780;45.502;9.146;2023-03-18T01:30:22;38.45;;;20.95;;
24644;SDS011;12780;45.502;9.146;2023-03-18T01:32:48;41.05;;;21.10;;
24644;SDS011;12780;45.502;9.146;2023-03-18T01:35:13;43.05;;;20.50;;
24644;SDS011;12780;45.502;9.146;2023-03-18T01:37:39;39.03;;;19.65;;
24644;SDS011;12780;45.502;9.146;2023-03-18T01:40:06;42.33;;;20.73;;
24644;SDS011;12780;45.502;9.146;2023-03-18T01:42:33;37.53;;;19.73;;
24644;SDS011;12780;45.502;9.146;2023-03-18T01:45:13;37.53;;;20.08;;
24644;SDS011;12780;45.502;9.146;2023-03-18T01:47:43;41.08;;;19.08;;
24644;SDS011;12780;45.502;9.146;2023-03-18T01:50:11;43.53;;;20.25;;
24644;SDS011;12780;45.502;9.146;2023-03-18T01:52:38;43.00;;;20.20;;
24644;SDS011;12780;45.502;9.146;2023-03-18T01:55:08;39.78;;;20.20;;
24644;SDS011;12780;45.502;9.146;2023-03-18T01:57:37;37.75;;;18.77;;
24644;SDS011;12780;45.502;9.146;2023-03-18T02:00:06;40.00;;;19.60;;
24644;SDS011;12780;45.502;9.146;2023-03-18T02:02:34;40.85;;;20.13;;
24644;SDS011;12780;45.502;9.146;2023-03-18T02:05:03;43.58;;;20.30;;
24644;SDS011;12780;45.502;9.146;2023-03-18T02:07:31;40.00;;;20.23;;
24644;SDS011;12780;45.502;9.146;2023-03-18T02:09:59;42.47;;;19.75;;
24644;SDS011;12780;45.502;9.146;2023-03-18T02:12:30;43.88;;;19.95;;
24644;SDS011;12780;45.502;9.146;2023-03-18T02:15:01;38.42;;;19.77;;
24644;SDS011;12780;45.502;9.146;2023-03-18T02:17:29;41.53;;;20.85;;
24644;SDS011;12780;45.502;9.146;2023-03-18T02:22:45;33.22;;;18.63;;
24644;SDS011;12780;45.502;9.146;2023-03-18T02:25:30;39.28;;;18.70;;
24644;SDS011;12780;45.502;9.146;2023-03-18T02:28:16;37.92;;;19.08;;
24644;SDS011;12780;45.502;9.146;2023-03-18T02:30:46;33.65;;;18.60;;
24644;SDS011;12780;45.502;9.146;2023-03-18T02:33:15;37.72;;;18.90;;
24644;SDS011;12780;45.502;9.146;2023-03-18T02:35:43;43.25;;;19.00;;
24644;SDS011;12780;45.502;9.146;2023-03-18T02:38:11;35.83;;;18.15;;
24644;SDS011;12780;45.502;9.146;2023-03-18T02:40:38;33.03;;;18.40;;
24644;SDS011;12780;45.502;9.146;2023-03-18T02:46:03;33.50;;;17.98;;
24644;SDS011;12780;45.502;9.146;2023-03-18T02:48:41;37.17;;;18.38;;
24644;SDS011;12780;45.502;9.146;2023-03-18T02:51:09;35.63;;;19.00;;
24644;SDS011;12780;45.502;9.146;2023-03-18T02:53:36;50.17;;;18.77;;
24644;SDS011;12780;45.502;9.146;2023-03-18T02:56:02;34.00;;;17.83;;
24644;SDS011;12780;45.502;9.146;2023-03-18T02:58:29;35.55;;;18.40;;
24644;SDS011;12780;45.502;9.146;2023-03-18T03:00:54;31.13;;;17.95;;
24644;SDS011;12780;45.502;9.146;2023-03-18T03:03:21;34.72;;;18.10;;
24644;SDS011;12780;45.502;9.146;2023-03-18T03:05:47;36.20;;;18.40;;
24644;SDS011;12780;45.502;9.146;2023-03-18T03:08:13;37.88;;;17.52;;
24644;SDS011;12780;45.502;9.146;2023-03-18T03:10:39;39.95;;;18.55;;
24644;SDS011;12780;45.502;9.146;2023-03-18T03:13:05;35.03;;;18.50;;
24644;SDS011;12780;45.502;9.146;2023-03-18T03:15:33;32.78;;;17.70;;
24644;SDS011;12780;45.502;9.146;2023-03-18T03:18:03;36.53;;;17.95;;
24644;SDS011;12780;45.502;9.146;2023-03-18T03:20:29;38.35;;;18.70;;
24644;SDS011;12780;45.502;9.146;2023-03-18T03:23:01;39.78;;;17.50;;
24644;SDS011;12780;45.502;9.146;2023-03-18T03:25:28;28.88;;;17.45;;
24644;SDS011;12780;45.502;9.146;2023-03-18T03:27:53;30.83;;;16.77;;
24644;SDS011;12780;45.502;9.146;2023-03-18T03:30:19;38.47;;;18.40;;
24644;SDS011;12780;45.502;9.146;2023-03-18T03:32:46;32.05;;;17.45;;
24644;SDS011;12780;45.502;9.146;2023-03-18T03:35:13;32.30;;;17.45;;
24644;SDS011;12780;45.502;9.146;2023-03-18T03:37:40;37.30;;;17.77;;
24644;SDS011;12780;45.502;9.146;2023-03-18T03:40:06;36.78;;;16.73;;
24644;SDS011;12780;45.502;9.146;2023-03-18T03:42:33;40.67;;;18.20;;
24644;SDS011;12780;45.502;9.146;2023-03-18T03:44:58;30.80;;;16.88;;
24644;SDS011;12780;45.502;9.146;2023-03-18T03:47:24;31.63;;;17.20;;
24644;SDS011;12780;45.502;9.146;2023-03-18T03:49:50;33.75;;;17.17;;
24644;SDS011;12780;45.502;9.146;2023-03-18T03:52:16;35.67;;;16.27;;
24644;SDS011;12780;45.502;9.146;2023-03-18T03:54:43;34.08;;;17.63;;
24644;SDS011;12780;45.502;9.146;2023-03-18T03:57:09;34.17;;;17.88;;
24644;SDS011;12780;45.502;9.146;2023-03-18T03:59:35;41.42;;;17.90;;
24644;SDS011;12780;45.502;9.146;2023-03-18T04:02:01;33.28;;;16.63;;
24644;SDS011;12780;45.502;9.146;2023-03-18T04:04:27;34.67;;;17.55;;
24644;SDS011;12780;45.502;9.146;2023-03-18T04:06:53;31.73;;;16.50;;
24644;SDS011;12780;45.502;9.146;2023-03-18T04:09:20;32.85;;;17.40;;
24644;SDS011;12780;45.502;9.146;2023-03-18T04:11:46;33.53;;;17.45;;
24644;SDS011;12780;45.502;9.146;2023-03-18T04:14:12;30.23;;;16.40;;
24644;SDS011;12780;45.502;9.146;2023-03-18T04:16:37;32.47;;;17.35;;
24644;SDS011;12780;45.502;9.146;2023-03-18T04:19:03;32.65;;;16.73;;
24644;SDS011;12780;45.502;9.146;2023-03-18T04:21:31;34.42;;;16.83;;
24644;SDS011;12780;45.502;9.146;2023-03-18T04:23:57;29.92;;;16.80;;
24644;SDS011;12780;45.502;9.146;2023-03-18T04:26:23;31.98;;;16.40;;
24644;SDS011;12780;45.502;9.146;2023-03-18T04:28:48;36.13;;;17.02;;
24644;SDS011;12780;45.502;9.146;2023-03-18T04:31:14;42.03;;;16.58;;
24644;SDS011;12780;45.502;9.146;2023-03-18T04:33:40;34.47;;;17.25;;
24644;SDS011;12780;45.502;9.146;2023-03-18T04:36:06;31.55;;;16.38;;
24644;SDS011;12780;45.502;9.146;2023-03-18T04:38:32;34.22;;;17.02;;
24644;SDS011;12780;45.502;9.146;2023-03-18T04:40:58;29.08;;;16.88;;
24644;SDS011;12780;45.502;9.146;2023-03-18T04:43:23;34.25;;;17.65;;
24644;SDS011;12780;45.502;9.146;2023-03-18T04:45:49;34.28;;;17.98;;
24644;SDS011;12780;45.502;9.146;2023-03-18T04:48:14;37.15;;;16.80;;
24644;SDS011;12780;45.502;9.146;2023-03-18T04:50:40;35.22;;;15.80;;
24644;SDS011;12780;45.502;9.146;2023-03-18T04:53:05;31.85;;;16.63;;
24644;SDS011;12780;45.502;9.146;2023-03-18T04:55:31;37.13;;;16.80;;
24644;SDS011;12780;45.502;9.146;2023-03-18T04:57:57;35.25;;;17.15;;
24644;SDS011;12780;45.502;9.146;2023-03-18T05:00:23;33.80;;;16.85;;
24644;SDS011;12780;45.502;9.146;2023-03-18T05:02:48;33.78;;;15.93;;
24644;SDS011;12780;45.502;9.146;2023-03-18T05:05:14;32.58;;;17.23;;
24644;SDS011;12780;45.502;9.146;2023-03-18T05:07:40;32.15;;;17.27;;
24644;SDS011;12780;45.502;9.146;2023-03-18T05:10:08;32.03;;;16.40;;
24644;SDS011;12780;45.502;9.146;2023-03-18T05:12:35;31.23;;;16.55;;
24644;SDS011;12780;45.502;9.146;2023-03-18T05:15:01;30.15;;;16.08;;
24644;SDS011;12780;45.502;9.146;2023-03-18T05:17:27;32.58;;;17.73;;
24644;SDS011;12780;45.502;9.146;2023-03-18T05:19:54;34.08;;;18.00;;
24644;SDS011;12780;45.502;9.146;2023-03-18T05:22:19;37.13;;;17.45;;
24644;SDS011;12780;45.502;9.146;2023-03-18T05:24:46;31.48;;;16.80;;
24644;SDS011;12780;45.502;9.146;2023-03-18T05:27:13;33.38;;;16.63;;
24644;SDS011;12780;45.502;9.146;2023-03-18T05:29:40;31.63;;;16.88;;
24644;SDS011;12780;45.502;9.146;2023-03-18T05:32:06;35.15;;;17.20;;
24644;SDS011;12780;45.502;9.146;2023-03-18T05:34:33;30.40;;;17.35;;
24644;SDS011;12780;45.502;9.146;2023-03-18T05:37:01;31.77;;;16.73;;
24644;SDS011;12780;45.502;9.146;2023-03-18T05:39:31;38.15;;;16.77;;
24644;SDS011;12780;45.502;9.146;2023-03-18T05:41:58;37.35;;;16.80;;
24644;SDS011;12780;45.502;9.146;2023-03-18T05:44:24;29.50;;;16.42;;
24644;SDS011;12780;45.502;9.146;2023-03-18T05:46:50;45.83;;;17.02;;
24644;SDS011;12780;45.502;9.146;2023-03-18T05:49:19;31.48;;;16.63;;
24644;SDS011;12780;45.502;9.146;2023-03-18T05:51:47;32.70;;;16.40;;
24644;SDS011;12780;45.502;9.146;2023-03-18T05:54:13;32.95;;;16.65;;
24644;SDS011;12780;45.502;9.146;2023-03-18T05:56:40;34.75;;;16.63;;
24644;SDS011;12780;45.502;9.146;2023-03-18T05:59:07;46.17;;;21.08;;
24644;SDS011;12780;45.502;9.146;2023-03-18T06:01:34;52.55;;;21.80;;
24644;SDS011;12780;45.502;9.146;2023-03-18T06:04:00;41.08;;;18.65;;
24644;SDS011;12780;45.502;9.146;2023-03-18T06:06:26;41.25;;;19.05;;
24644;SDS011;12780;45.502;9.146;2023-03-18T06:08:51;37.65;;;17.85;;
24644;SDS011;12780;45.502;9.146;2023-03-18T06:11:17;42.10;;;17.10;;
24644;SDS011;12780;45.502;9.146;2023-03-18T06:13:43;38.42;;;17.20;;
24644;SDS011;12780;45.502;9.146;2023-03-18T06:16:09;43.20;;;18.67;;
24644;SDS011;12780;45.502;9.146;2023-03-18T06:18:35;38.60;;;18.23;;
24644;SDS011;12780;45.502;9.146;2023-03-18T06:21:01;50.97;;;21.08;;
24644;SDS011;12780;45.502;9.146;2023-03-18T06:23:28;48.53;;;22.50;;
24644;SDS011;12780;45.502;9.146;2023-03-18T06:25:53;46.50;;;21.75;;
24644;SDS011;12780;45.502;9.146;2023-03-18T06:28:19;42.17;;;19.30;;
24644;SDS011;12780;45.502;9.146;2023-03-18T06:30:45;39.08;;;18.02;;
24644;SDS011;12780;45.502;9.146;2023-03-18T06:33:10;47.80;;;19.13;;
24644;SDS011;12780;45.502;9.146;2023-03-18T06:35:36;42.50;;;19.40;;
24644;SDS011;12780;45.502;9.146;2023-03-18T06:38:02;39.60;;;20.40;;
24644;SDS011;12780;45.502;9.146;2023-03-18T06:40:28;52.15;;;19.90;;
24644;SDS011;12780;45.502;9.146;2023-03-18T06:42:53;45.00;;;20.08;;
24644;SDS011;12780;45.502;9.146;2023-03-18T06:45:19;45.58;;;20.30;;
24644;SDS011;12780;45.502;9.146;2023-03-18T06:47:46;34.60;;;18.92;;
24644;SDS011;12780;45.502;9.146;2023-03-18T06:50:13;43.35;;;20.23;;
24644;SDS011;12780;45.502;9.146;2023-03-18T06:52:40;49.65;;;23.23;;
24644;SDS011;12780;45.502;9.146;2023-03-18T06:55:06;49.42;;;20.90;;
24644;SDS011;12780;45.502;9.146;2023-03-18T06:57:32;38.42;;;19.70;;
24644;SDS011;12780;45.502;9.146;2023-03-18T06:59:58;39.90;;;17.83;;
24644;SDS011;12780;45.502;9.146;2023-03-18T07:02:24;48.13;;;19.25;;
24644;SDS011;12780;45.502;9.146;2023-03-18T07:04:51;36.58;;;18.63;;
24644;SDS011;12780;45.502;9.146;2023-03-18T07:07:17;43.22;;;19.52;;
24644;SDS011;12780;45.502;9.146;2023-03-18T07:09:43;45.42;;;19.63;;
24644;SDS011;12780;45.502;9.146;2023-03-18T07:12:11;43.05;;;20.23;;
24644;SDS011;12780;45.502;9.146;2023-03-18T07:14:38;42.15;;;18.25;;
24644;SDS011;12780;45.502;9.146;2023-03-18T07:17:04;37.38;;;18.25;;
24644;SDS011;12780;45.502;9.146;2023-03-18T07:19:30;36.72;;;18.73;;
24644;SDS011;12780;45.502;9.146;2023-03-18T07:21:57;41.85;;;19.50;;
24644;SDS011;12780;45.502;9.146;2023-03-18T07:24:23;36.38;;;18.98;;
24644;SDS011;12780;45.502;9.146;2023-03-18T07:26:49;42.50;;;21.23;;
24644;SDS011;12780;45.502;9.146;2023-03-18T07:29:15;38.65;;;20.15;;
24644;SDS011;12780;45.502;9.146;2023-03-18T07:31:41;41.25;;;19.27;;
24644;SDS011;12780;45.502;9.146;2023-03-18T07:34:07;37.72;;;19.30;;
24644;SDS011;12780;45.502;9.146;2023-03-18T07:36:33;40.40;;;19.02;;
24644;SDS011;12780;45.502;9.146;2023-03-18T07:39:01;37.17;;;19.40;;
24644;SDS011;12780;45.502;9.146;2023-03-18T07:41:27;47.45;;;20.48;;
24644;SDS011;12780;45.502;9.146;2023-03-18T07:43:53;41.55;;;20.73;;
24644;SDS011;12780;45.502;9.146;2023-03-18T07:46:19;39.22;;;19.25;;
24644;SDS011;12780;45.502;9.146;2023-03-18T07:48:45;43.33;;;20.58;;
24644;SDS011;12780;45.502;9.146;2023-03-18T07:51:11;51.47;;;20.27;;
24644;SDS011;12780;45.502;9.146;2023-03-18T07:53:39;37.80;;;19.60;;
24644;SDS011;12780;45.502;9.146;2023-03-18T07:56:05;37.53;;;19.50;;
24644;SDS011;12780;45.502;9.146;2023-03-18T07:58:32;41.88;;;19.63;;
24644;SDS011;12780;45.502;9.146;2023-03-18T08:00:58;37.03;;;19.55;;
24644;SDS011;12780;45.502;9.146;2023-03-18T08:03:24;40.78;;;20.02;;
24644;SDS011;12780;45.502;9.146;2023-03-18T08:05:50;39.75;;;19.55;;
24644;SDS011;12780;45.502;9.146;2023-03-18T08:08:16;40.53;;;19.90;;
24644;SDS011;12780;45.502;9.146;2023-03-18T08:10:42;35.05;;;19.40;;
24644;SDS011;12780;45.502;9.146;2023-03-18T08:13:07;35.83;;;19.85;;
24644;SDS011;12780;45.502;9.146;2023-03-18T08:15:33;56.55;;;21.58;;
24644;SDS011;12780;45.502;9.146;2023-03-18T08:17:59;42.08;;;20.70;;
24644;SDS011;12780;45.502;9.146;2023-03-18T08:20:25;46.47;;;20.70;;
24644;SDS011;12780;45.502;9.146;2023-03-18T08:22:51;41.28;;;21.60;;
24644;SDS011;12780;45.502;9.146;2023-03-18T08:25:17;40.85;;;20.38;;
24644;SDS011;12780;45.502;9.146;2023-03-18T08:27:44;40.22;;;20.40;;
24644;SDS011;12780;45.502;9.146;2023-03-18T08:30:10;39.30;;;21.52;;
24644;SDS011;12780;45.502;9.146;2023-03-18T08:32:36;42.47;;;21.73;;
24644;SDS011;12780;45.502;9.146;2023-03-18T08:35:02;37.70;;;21.13;;
24644;SDS011;12780;45.502;9.146;2023-03-18T08:37:29;37.85;;;21.13;;
24644;SDS011;12780;45.502;9.146;2023-03-18T08:39:55;36.20;;;20.73;;
24644;SDS011;12780;45.502;9.146;2023-03-18T08:42:20;44.72;;;21.27;;
24644;SDS011;12780;45.502;9.146;2023-03-18T08:44:46;38.05;;;20.60;;
24644;SDS011;12780;45.502;9.146;2023-03-18T08:47:12;34.42;;;19.70;;
24644;SDS011;12780;45.502;9.146;2023-03-18T08:49:38;33.10;;;19.23;;
24644;SDS011;12780;45.502;9.146;2023-03-18T08:52:05;37.10;;;18.95;;
24644;SDS011;12780;45.502;9.146;2023-03-18T08:54:30;38.22;;;18.27;;
24644;SDS011;12780;45.502;9.146;2023-03-18T08:56:56;33.22;;;18.60;;
24644;SDS011;12780;45.502;9.146;2023-03-18T08:59:23;35.85;;;18.83;;
24644;SDS011;12780;45.502;9.146;2023-03-18T09:01:48;36.58;;;18.75;;
24644;SDS011;12780;45.502;9.146;2023-03-18T09:04:14;33.03;;;19.27;;
24644;SDS011;12780;45.502;9.146;2023-03-18T09:06:40;34.28;;;17.80;;
24644;SDS011;12780;45.502;9.146;2023-03-18T09:09:06;27.63;;;13.48;;
24644;SDS011;12780;45.502;9.146;2023-03-18T09:11:33;26.05;;;13.38;;
24644;SDS011;12780;45.502;9.146;2023-03-18T09:13:59;32.30;;;14.00;;
24644;SDS011;12780;45.502;9.146;2023-03-18T09:16:25;31.48;;;14.77;;
24644;SDS011;12780;45.502;9.146;2023-03-18T09:18:50;30.45;;;15.23;;
24644;SDS011;12780;45.502;9.146;2023-03-18T09:21:16;25.85;;;14.65;;
24644;SDS011;12780;45.502;9.146;2023-03-18T09:23:43;28.70;;;14.50;;
24644;SDS011;12780;45.502;9.146;2023-03-18T09:26:10;27.60;;;14.48;;
24644;SDS011;12780;45.502;9.146;2023-03-18T09:28:35;29.67;;;15.32;;
24644;SDS011;12780;45.502;9.146;2023-03-18T09:31:01;24.80;;;13.60;;
24644;SDS011;12780;45.502;9.146;2023-03-18T09:33:27;24.65;;;12.38;;
24644;SDS011;12780;45.502;9.146;2023-03-18T09:35:53;30.25;;;14.05;;
24644;SDS011;12780;45.502;9.146;2023-03-18T09:38:19;28.30;;;15.40;;
24644;SDS011;12780;45.502;9.146;2023-03-18T09:40:50;32.17;;;13.85;;
24644;SDS011;12780;45.502;9.146;2023-03-18T09:52:12;27.33;;;14.23;;
24644;SDS011;12780;45.502;9.146;2023-03-18T09:57:50;26.75;;;13.68;;
24644;SDS011;12780;45.502;9.146;2023-03-18T10:00:35;26.48;;;13.77;;
24644;SDS011;12780;45.502;9.146;2023-03-18T10:03:03;21.45;;;12.90;;
24644;SDS011;12780;45.502;9.146;2023-03-18T10:05:34;28.75;;;13.93;;
24644;SDS011;12780;45.502;9.146;2023-03-18T10:10:52;25.77;;;14.27;;
24644;SDS011;12780;45.502;9.146;2023-03-18T10:13:26;28.52;;;14.02;;
24644;SDS011;12780;45.502;9.146;2023-03-18T10:15:57;30.88;;;15.15;;
24644;SDS011;12780;45.502;9.146;2023-03-18T10:18:34;28.92;;;14.20;;
24644;SDS011;12780;45.502;9.146;2023-03-18T10:24:33;26.02;;;14.38;;
24644;SDS011;12780;45.502;9.146;2023-03-18T10:27:14;24.48;;;14.73;;
24644;SDS011;12780;45.502;9.146;2023-03-18T10:32:58;27.20;;;14.70;;
24644;SDS011;12780;45.502;9.146;2023-03-18T10:35:50;31.63;;;15.40;;
24644;SDS011;12780;45.502;9.146;2023-03-18T10:41:00;26.75;;;15.15;;
24644;SDS011;12780;45.502;9.146;2023-03-18T10:43:27;26.75;;;14.30;;
24644;SDS011;12780;45.502;9.146;2023-03-18T10:45:59;25.17;;;15.43;;
24644;SDS011;12780;45.502;9.146;2023-03-18T10:48:29;26.60;;;15.60;;
24644;SDS011;12780;45.502;9.146;2023-03-18T10:51:14;29.02;;;15.85;;
24644;SDS011;12780;45.502;9.146;2023-03-18T10:56:24;31.20;;;16.02;;
24644;SDS011;12780;45.502;9.146;2023-03-18T10:58:50;28.63;;;15.45;;
24644;SDS011;12780;45.502;9.146;2023-03-18T11:01:17;28.02;;;16.40;;
24644;SDS011;12780;45.502;9.146;2023-03-18T11:09:11;29.02;;;16.17;;
24644;SDS011;12780;45.502;9.146;2023-03-18T11:11:41;31.58;;;16.48;;
24644;SDS011;12780;45.502;9.146;2023-03-18T11:14:13;32.08;;;17.23;;
24644;SDS011;12780;45.502;9.146;2023-03-18T11:19:35;30.05;;;17.38;;
24644;SDS011;12780;45.502;9.146;2023-03-18T11:24:34;30.80;;;18.05;;
24644;SDS011;12780;45.502;9.146;2023-03-18T11:29:39;28.80;;;17.20;;
24644;SDS011;12780;45.502;9.146;2023-03-18T11:32:11;33.85;;;17.13;;
24644;SDS011;12780;45.502;9.146;2023-03-18T11:35:15;31.15;;;17.50;;
24644;SDS011;12780;45.502;9.146;2023-03-18T11:37:45;34.85;;;17.05;;
24644;SDS011;12780;45.502;9.146;2023-03-18T11:40:15;29.45;;;16.80;;
24644;SDS011;12780;45.502;9.146;2023-03-18T11:42:53;31.92;;;17.08;;
24644;SDS011;12780;45.502;9.146;2023-03-18T11:45:30;30.08;;;17.77;;
24644;SDS011;12780;45.502;9.146;2023-03-18T11:47:58;33.35;;;17.63;;
24644;SDS011;12780;45.502;9.146;2023-03-18T11:50:27;32.45;;;17.20;;
24644;SDS011;12780;45.502;9.146;2023-03-18T11:53:05;33.35;;;17.00;;
24644;SDS011;12780;45.502;9.146;2023-03-18T11:55:56;30.83;;;16.98;;
24644;SDS011;12780;45.502;9.146;2023-03-18T11:58:33;29.85;;;17.10;;
24644;SDS011;12780;45.502;9.146;2023-03-18T12:06:47;30.65;;;15.90;;
24644;SDS011;12780;45.502;9.146;2023-03-18T12:12:16;32.30;;;17.65;;
24644;SDS011;12780;45.502;9.146;2023-03-18T12:20:59;30.48;;;16.88;;
24644;SDS011;12780;45.502;9.146;2023-03-18T12:23:54;32.63;;;17.70;;
24644;SDS011;12780;45.502;9.146;2023-03-18T12:26:46;31.15;;;17.52;;
24644;SDS011;12780;45.502;9.146;2023-03-18T12:43:15;33.03;;;17.17;;
24644;SDS011;12780;45.502;9.146;2023-03-18T12:45:56;27.40;;;16.35;;
24644;SDS011;12780;45.502;9.146;2023-03-18T12:48:29;29.95;;;17.25;;
24644;SDS011;12780;45.502;9.146;2023-03-18T12:51:01;33.60;;;16.88;;
24644;SDS011;12780;45.502;9.146;2023-03-18T12:53:35;31.85;;;16.63;;
24644;SDS011;12780;45.502;9.146;2023-03-18T12:56:12;31.42;;;15.80;;
24644;SDS011;12780;45.502;9.146;2023-03-18T12:58:47;31.30;;;15.52;;
24644;SDS011;12780;45.502;9.146;2023-03-18T13:01:25;33.72;;;16.38;;
24644;SDS011;12780;45.502;9.146;2023-03-18T13:04:01;24.45;;;13.88;;
24644;SDS011;12780;45.502;9.146;2023-03-18T13:09:53;28.17;;;15.15;;
24644;SDS011;12780;45.502;9.146;2023-03-18T13:12:29;26.90;;;15.05;;
24644;SDS011;12780;45.502;9.146;2023-03-18T13:15:03;29.23;;;14.75;;
24644;SDS011;12780;45.502;9.146;2023-03-18T13:17:33;28.98;;;15.45;;
24644;SDS011;12780;45.502;9.146;2023-03-18T13:20:10;30.38;;;16.60;;
24644;SDS011;12780;45.502;9.146;2023-03-18T13:31:51;24.67;;;13.52;;
24644;SDS011;12780;45.502;9.146;2023-03-18T13:37:25;28.08;;;15.73;;
24644;SDS011;12780;45.502;9.146;2023-03-18T13:40:21;26.63;;;13.95;;
24644;SDS011;12780;45.502;9.146;2023-03-18T13:42:57;28.17;;;13.52;;
24644;SDS011;12780;45.502;9.146;2023-03-18T13:45:38;32.75;;;14.20;;
24644;SDS011;12780;45.502;9.146;2023-03-18T13:50:43;28.33;;;14.13;;
24644;SDS011;12780;45.502;9.146;2023-03-18T13:53:23;22.80;;;13.05;;
24644;SDS011;12780;45.502;9.146;2023-03-18T13:58:23;27.00;;;14.88;;
24644;SDS011;12780;45.502;9.146;2023-03-18T14:03:20;29.27;;;14.23;;
24644;SDS011;12780;45.502;9.146;2023-03-18T14:11:53;27.75;;;14.85;;
24644;SDS011;12780;45.502;9.146;2023-03-18T14:14:37;32.53;;;16.35;;
24644;SDS011;12780;45.502;9.146;2023-03-18T14:17:04;25.10;;;14.27;;
24644;SDS011;12780;45.502;9.146;2023-03-18T14:19:37;28.42;;;15.20;;
24644;SDS011;12780;45.502;9.146;2023-03-18T14:22:05;26.90;;;15.15;;
24644;SDS011;12780;45.502;9.146;2023-03-18T14:24:40;41.50;;;21.02;;
24644;SDS011;12780;45.502;9.146;2023-03-18T14:27:08;28.25;;;14.98;;
24644;SDS011;12780;45.502;9.146;2023-03-18T14:29:43;26.70;;;14.98;;
24644;SDS011;12780;45.502;9.146;2023-03-18T14:40:36;28.42;;;13.43;;
24644;SDS011;12780;45.502;9.146;2023-03-18T14:43:07;26.20;;;13.27;;
24644;SDS011;12780;45.502;9.146;2023-03-18T14:46:01;25.95;;;12.80;;
24644;SDS011;12780;45.502;9.146;2023-03-18T14:48:30;25.58;;;13.55;;
24644;SDS011;12780;45.502;9.146;2023-03-18T14:51:02;26.90;;;13.30;;
24644;SDS011;12780;45.502;9.146;2023-03-18T14:53:40;26.50;;;14.10;;
24644;SDS011;12780;45.502;9.146;2023-03-18T14:56:16;26.02;;;14.07;;
24644;SDS011;12780;45.502;9.146;2023-03-18T14:58:44;28.23;;;13.98;;
24644;SDS011;12780;45.502;9.146;2023-03-18T15:01:11;28.25;;;13.63;;
24644;SDS011;12780;45.502;9.146;2023-03-18T15:03:39;26.30;;;13.63;;
24644;SDS011;12780;45.502;9.146;2023-03-18T15:06:17;29.85;;;14.05;;
24644;SDS011;12780;45.502;9.146;2023-03-18T15:08:50;25.58;;;13.27;;
24644;SDS011;12780;45.502;9.146;2023-03-18T15:11:22;23.33;;;12.35;;
24644;SDS011;12780;45.502;9.146;2023-03-18T15:13:48;22.20;;;12.48;;
24644;SDS011;12780;45.502;9.146;2023-03-18T15:16:18;28.80;;;13.75;;
24644;SDS011;12780;45.502;9.146;2023-03-18T15:18:50;27.40;;;13.18;;
24644;SDS011;12780;45.502;9.146;2023-03-18T15:21:19;26.30;;;13.18;;
24644;SDS011;12780;45.502;9.146;2023-03-18T15:24:04;23.42;;;12.55;;
24644;SDS011;12780;45.502;9.146;2023-03-18T15:28:59;23.73;;;13.63;;
24644;SDS011;12780;45.502;9.146;2023-03-18T15:31:29;26.08;;;13.93;;
24644;SDS011;12780;45.502;9.146;2023-03-18T15:36:38;25.20;;;14.43;;
24644;SDS011;12780;45.502;9.146;2023-03-18T15:41:58;26.25;;;13.00;;
24644;SDS011;12780;45.502;9.146;2023-03-18T15:46:54;30.20;;;12.98;;
24644;SDS011;12780;45.502;9.146;2023-03-18T15:49:27;21.95;;;12.75;;
24644;SDS011;12780;45.502;9.146;2023-03-18T15:51:57;27.17;;;13.05;;
24644;SDS011;12780;45.502;9.146;2023-03-18T15:54:26;23.17;;;12.73;;
24644;SDS011;12780;45.502;9.146;2023-03-18T15:56:54;24.83;;;12.68;;
24644;SDS011;12780;45.502;9.146;2023-03-18T15:59:23;25.63;;;12.27;;
24644;SDS011;12780;45.502;9.146;2023-03-18T16:01:52;23.88;;;13.02;;
24644;SDS011;12780;45.502;9.146;2023-03-18T16:04:19;26.92;;;13.05;;
24644;SDS011;12780;45.502;9.146;2023-03-18T16:06:45;27.42;;;12.85;;
24644;SDS011;12780;45.502;9.146;2023-03-18T16:09:30;24.23;;;13.43;;
24644;SDS011;12780;45.502;9.146;2023-03-18T16:12:05;24.30;;;12.68;;
24644;SDS011;12780;45.502;9.146;2023-03-18T16:14:38;24.83;;;12.43;;
24644;SDS011;12780;45.502;9.146;2023-03-18T16:17:05;33.70;;;14.23;;
24644;SDS011;12780;45.502;9.146;2023-03-18T16:19:34;19.88;;;11.00;;
24644;SDS011;12780;45.502;9.146;2023-03-18T16:21:59;21.30;;;10.60;;
24644;SDS011;12780;45.502;9.146;2023-03-18T16:24:25;21.98;;;11.13;;
24644;SDS011;12780;45.502;9.146;2023-03-18T16:26:51;18.35;;;10.63;;
24644;SDS011;12780;45.502;9.146;2023-03-18T16:29:21;19.75;;;11.00;;
24644;SDS011;12780;45.502;9.146;2023-03-18T16:31:53;25.60;;;11.35;;
24644;SDS011;12780;45.502;9.146;2023-03-18T16:34:19;21.13;;;11.10;;